Air Navigation Services of Czech Republic
Airport: LKCV Updated:  03.10.2022 10:59:32  UTC
 METAR LKCV 03.10. 11:00 ...
METAR LKCV 031100Z 31018G28KT 9999 SCT026 BKN050 13/07 Q1021 NOSIG RMK BLU BLU=
 TAF LKCV 03.10. 05:00 ...
TAF LKCV 030500Z 0306/0406 28014KT 9999 BKN040      PROB30 TEMPO 0309/0311 7000 SHRA BKN030      TEMPO 0308/0318 29019G30KT      TEMPO 0320/0403 7000 SHRA BKN025=